METAR AND TAF INFORMATION
METAR FOR LELN
ADDS - METARS form results

(2008 UTC 15 October 2021)
Data provider http://aviationweather.gov/metar/data/
 
METAR text: LELN 152000Z AUTO 30007KT CAVOK 13/04 Q1020
Conditions at: LELN (LEON/VIRGEN CAMI, ES) observed 2000 UTC 15 October 2021
Temperature: 13.0°C (55°F)
Dewpoint: 4.0°C (39°F) [RH = 54%]
Pressure (altimeter): 30.12 inches Hg (1020.0 mb)
Winds: from the WNW (300 degrees) at 8 MPH (7 knots; 3.6 m/s)
Visibility: 6 or more miles (10+ km)
Ceiling: ceiling and visibility are OK
Clouds: unknown
Weather: no significant weather observed at this time

METAR text: LELN 151930Z AUTO 32007KT CAVOK 13/05 Q1020
Conditions at: LELN (LEON/VIRGEN CAMI, ES) observed 1930 UTC 15 October 2021
Temperature: 13.0°C (55°F)
Dewpoint: 5.0°C (41°F) [RH = 58%]
Pressure (altimeter): 30.12 inches Hg (1020.0 mb)
Winds: from the NW (320 degrees) at 8 MPH (7 knots; 3.6 m/s)
Visibility: 6 or more miles (10+ km)
Ceiling: ceiling and visibility are OK
Clouds: unknown
Weather: no significant weather observed at this time

Forecast for: LELN (LEON/VIRGEN CAMI, ES)
Text: TAF LELN 151400Z 1515/1615 VRB05KT CAVOK TX22/1515Z TN04/1606Z
Forecast period: 1500 UTC 15 October 2021 to 1500 UTC 16 October 2021
Forecast type: FROM: standard forecast or significant change
Winds: variable direction winds at 6 MPH (5 knots; 2.6 m/s)
Visibility: 6 or more miles (10+ km)
Ceiling: unknown
Clouds: missing
Weather: no significant weather forecast for this period

 AIRPORT MAP

 RUNWAY INFORMATION
Runway 05 Runway length 6890 ft Runway width 148 ft
Runway elevation 2994 ft Runway displaced threshold 0 ft Runway heading 45
Runway 23 Runway length 6890 ft Runway width 148 ft
Runway elevation 3001 ft Runway displaced threshold 0 ft Runway heading 225
Runway 06 Runway length 3609 ft Runway width 328 ft
Runway elevation 3034 ft Runway displaced threshold 0 ft Runway heading 60
Runway 24 Runway length 3609 ft Runway width 328 ft
Runway elevation 3000 ft Runway displaced threshold 0 ft Runway heading 240

 AIRPORT FREQUENCIES
Type APP Name APP Frequency 122.1 MHZ
Type TWR Name TWR Frequency 122.1 MHZ

 AIRPORT NEAR NAVIGATION AIDS
Type VOR-DME Name Leon Frequency 112000 KHZ
Type NDB Name Leon Frequency 330 KHZ



Powered by Virtual Airlines Manager [v2.6.2]